sensor_id;sensor_type;location;lat;lon;timestamp;temperature;humidity
32293;DHT22;43233;48.608;8.838;2023-09-30T00:00:56;16.80;56.50
32293;DHT22;43233;48.608;8.838;2023-09-30T00:03:22;16.70;56.60
32293;DHT22;43233;48.608;8.838;2023-09-30T00:05:48;16.70;56.70
32293;DHT22;43233;48.608;8.838;2023-09-30T00:08:13;16.70;56.80
32293;DHT22;43233;48.608;8.838;2023-09-30T00:10:39;16.60;56.90
32293;DHT22;43233;48.608;8.838;2023-09-30T00:13:05;16.60;57.10
32293;DHT22;43233;48.608;8.838;2023-09-30T00:15:33;16.50;57.30
32293;DHT22;43233;48.608;8.838;2023-09-30T00:17:58;16.50;57.50
32293;DHT22;43233;48.608;8.838;2023-09-30T00:20:24;16.40;57.70
32293;DHT22;43233;48.608;8.838;2023-09-30T00:22:50;16.40;57.90
32293;DHT22;43233;48.608;8.838;2023-09-30T00:25:16;16.30;58.20
32293;DHT22;43233;48.608;8.838;2023-09-30T00:27:41;16.40;58.40
32293;DHT22;43233;48.608;8.838;2023-09-30T00:30:07;16.30;58.60
32293;DHT22;43233;48.608;8.838;2023-09-30T00:32:33;16.30;58.70
32293;DHT22;43233;48.608;8.838;2023-09-30T00:35:01;16.30;58.80
32293;DHT22;43233;48.608;8.838;2023-09-30T00:37:26;16.30;58.90
32293;DHT22;43233;48.608;8.838;2023-09-30T00:39:53;16.30;59.00
32293;DHT22;43233;48.608;8.838;2023-09-30T00:42:18;16.30;59.10
32293;DHT22;43233;48.608;8.838;2023-09-30T00:44:46;16.20;59.10
32293;DHT22;43233;48.608;8.838;2023-09-30T00:47:12;16.30;59.30
32293;DHT22;43233;48.608;8.838;2023-09-30T00:49:40;16.20;60.10
32293;DHT22;43233;48.608;8.838;2023-09-30T00:52:09;16.20;59.30
32293;DHT22;43233;48.608;8.838;2023-09-30T00:54:35;16.20;59.30
32293;DHT22;43233;48.608;8.838;2023-09-30T00:57:03;16.20;59.40
32293;DHT22;43233;48.608;8.838;2023-09-30T00:59:31;16.20;59.50
32293;DHT22;43233;48.608;8.838;2023-09-30T01:01:59;16.20;59.50
32293;DHT22;43233;48.608;8.838;2023-09-30T01:04:27;16.20;59.60
32293;DHT22;43233;48.608;8.838;2023-09-30T01:06:52;16.20;59.80
32293;DHT22;43233;48.608;8.838;2023-09-30T01:09:18;16.20;59.80
32293;DHT22;43233;48.608;8.838;2023-09-30T01:11:45;16.20;59.90
32293;DHT22;43233;48.608;8.838;2023-09-30T01:14:31;16.20;59.90
32293;DHT22;43233;48.608;8.838;2023-09-30T01:16:57;16.20;60.00
32293;DHT22;43233;48.608;8.838;2023-09-30T01:19:23;16.10;60.20
32293;DHT22;43233;48.608;8.838;2023-09-30T01:21:52;16.10;60.50
32293;DHT22;43233;48.608;8.838;2023-09-30T01:24:20;16.10;60.40
32293;DHT22;43233;48.608;8.838;2023-09-30T01:26:45;16.00;60.10
32293;DHT22;43233;48.608;8.838;2023-09-30T01:29:11;16.00;60.20
32293;DHT22;43233;48.608;8.838;2023-09-30T01:31:37;15.90;60.50
32293;DHT22;43233;48.608;8.838;2023-09-30T01:34:04;15.80;60.70
32293;DHT22;43233;48.608;8.838;2023-09-30T01:36:29;15.70;60.90
32293;DHT22;43233;48.608;8.838;2023-09-30T01:38:55;15.60;61.30
32293;DHT22;43233;48.608;8.838;2023-09-30T01:41:21;15.60;61.60
32293;DHT22;43233;48.608;8.838;2023-09-30T01:43:46;15.40;61.90
32293;DHT22;43233;48.608;8.838;2023-09-30T01:46:15;15.40;62.20
32293;DHT22;43233;48.608;8.838;2023-09-30T01:48:40;15.40;62.80
32293;DHT22;43233;48.608;8.838;2023-09-30T01:51:06;15.40;63.10
32293;DHT22;43233;48.608;8.838;2023-09-30T01:53:32;15.30;63.20
32293;DHT22;43233;48.608;8.838;2023-09-30T01:55:59;15.30;63.30
32293;DHT22;43233;48.608;8.838;2023-09-30T01:58:24;15.40;63.10
32293;DHT22;43233;48.608;8.838;2023-09-30T02:00:53;15.30;63.10
32293;DHT22;43233;48.608;8.838;2023-09-30T02:03:19;15.30;63.00
32293;DHT22;43233;48.608;8.838;2023-09-30T02:05:45;15.30;62.90
32293;DHT22;43233;48.608;8.838;2023-09-30T02:08:10;15.30;63.20
32293;DHT22;43233;48.608;8.838;2023-09-30T02:10:36;15.20;63.30
32293;DHT22;43233;48.608;8.838;2023-09-30T02:13:02;15.20;63.80
32293;DHT22;43233;48.608;8.838;2023-09-30T02:15:31;15.20;63.90
32293;DHT22;43233;48.608;8.838;2023-09-30T02:17:57;15.10;64.20
32293;DHT22;43233;48.608;8.838;2023-09-30T02:20:23;15.10;64.60
32293;DHT22;43233;48.608;8.838;2023-09-30T02:22:51;15.10;64.70
32293;DHT22;43233;48.608;8.838;2023-09-30T02:25:17;15.00;64.80
32293;DHT22;43233;48.608;8.838;2023-09-30T02:27:43;15.00;64.80
32293;DHT22;43233;48.608;8.838;2023-09-30T02:30:09;15.00;64.90
32293;DHT22;43233;48.608;8.838;2023-09-30T02:32:40;15.00;65.20
32293;DHT22;43233;48.608;8.838;2023-09-30T02:35:11;15.00;65.50
32293;DHT22;43233;48.608;8.838;2023-09-30T02:37:37;15.00;65.80
32293;DHT22;43233;48.608;8.838;2023-09-30T02:40:04;15.10;66.20
32293;DHT22;43233;48.608;8.838;2023-09-30T02:42:31;15.10;66.10
32293;DHT22;43233;48.608;8.838;2023-09-30T02:45:00;15.20;66.20
32293;DHT22;43233;48.608;8.838;2023-09-30T02:47:26;15.20;66.20
32293;DHT22;43233;48.608;8.838;2023-09-30T02:49:52;15.20;66.50
32293;DHT22;43233;48.608;8.838;2023-09-30T02:52:17;15.20;66.70
32293;DHT22;43233;48.608;8.838;2023-09-30T02:54:43;15.20;66.50
32293;DHT22;43233;48.608;8.838;2023-09-30T02:57:09;15.20;66.60
32293;DHT22;43233;48.608;8.838;2023-09-30T02:59:35;15.20;66.70
32293;DHT22;43233;48.608;8.838;2023-09-30T03:02:01;15.20;66.70
32293;DHT22;43233;48.608;8.838;2023-09-30T03:04:28;15.20;66.90
32293;DHT22;43233;48.608;8.838;2023-09-30T03:06:54;15.20;66.80
32293;DHT22;43233;48.608;8.838;2023-09-30T03:09:22;15.20;66.90
32293;DHT22;43233;48.608;8.838;2023-09-30T03:11:47;15.20;66.90
32293;DHT22;43233;48.608;8.838;2023-09-30T03:14:13;15.20;66.90
32293;DHT22;43233;48.608;8.838;2023-09-30T03:16:39;15.20;66.90
32293;DHT22;43233;48.608;8.838;2023-09-30T03:19:07;15.20;67.00
32293;DHT22;43233;48.608;8.838;2023-09-30T03:21:36;15.20;67.00
32293;DHT22;43233;48.608;8.838;2023-09-30T03:24:03;15.20;67.00
32293;DHT22;43233;48.608;8.838;2023-09-30T03:26:30;15.20;66.90
32293;DHT22;43233;48.608;8.838;2023-09-30T03:28:56;15.20;66.90
32293;DHT22;43233;48.608;8.838;2023-09-30T03:31:21;15.20;67.00
32293;DHT22;43233;48.608;8.838;2023-09-30T03:33:49;15.20;67.00
32293;DHT22;43233;48.608;8.838;2023-09-30T03:36:16;15.20;67.00
32293;DHT22;43233;48.608;8.838;2023-09-30T03:38:44;15.20;67.00
32293;DHT22;43233;48.608;8.838;2023-09-30T03:41:10;15.20;67.00
32293;DHT22;43233;48.608;8.838;2023-09-30T03:43:38;15.20;67.10
32293;DHT22;43233;48.608;8.838;2023-09-30T03:46:09;15.20;67.20
32293;DHT22;43233;48.608;8.838;2023-09-30T03:48:35;15.10;67.20
32293;DHT22;43233;48.608;8.838;2023-09-30T03:51:13;15.20;67.20
32293;DHT22;43233;48.608;8.838;2023-09-30T03:53:43;15.20;67.30
32293;DHT22;43233;48.608;8.838;2023-09-30T03:56:10;15.10;67.30
32293;DHT22;43233;48.608;8.838;2023-09-30T03:58:42;15.10;67.30
32293;DHT22;43233;48.608;8.838;2023-09-30T04:01:11;15.10;67.30
32293;DHT22;43233;48.608;8.838;2023-09-30T04:03:38;15.10;67.50
32293;DHT22;43233;48.608;8.838;2023-09-30T04:06:05;15.10;67.60
32293;DHT22;43233;48.608;8.838;2023-09-30T04:08:34;15.10;67.80
32293;DHT22;43233;48.608;8.838;2023-09-30T04:11:01;15.00;67.70
32293;DHT22;43233;48.608;8.838;2023-09-30T04:13:28;15.10;67.80
32293;DHT22;43233;48.608;8.838;2023-09-30T04:15:55;15.10;67.80
32293;DHT22;43233;48.608;8.838;2023-09-30T04:18:20;15.00;68.00
32293;DHT22;43233;48.608;8.838;2023-09-30T04:20:47;15.00;68.20
32293;DHT22;43233;48.608;8.838;2023-09-30T04:23:13;15.00;68.30
32293;DHT22;43233;48.608;8.838;2023-09-30T04:25:39;14.90;68.50
32293;DHT22;43233;48.608;8.838;2023-09-30T04:28:06;14.90;68.70
32293;DHT22;43233;48.608;8.838;2023-09-30T04:30:33;14.90;68.60
32293;DHT22;43233;48.608;8.838;2023-09-30T04:32:59;14.90;68.60
32293;DHT22;43233;48.608;8.838;2023-09-30T04:35:26;14.90;68.70
32293;DHT22;43233;48.608;8.838;2023-09-30T04:37:52;14.80;68.80
32293;DHT22;43233;48.608;8.838;2023-09-30T04:40:18;14.80;68.90
32293;DHT22;43233;48.608;8.838;2023-09-30T04:42:47;14.80;69.00
32293;DHT22;43233;48.608;8.838;2023-09-30T04:45:13;14.80;69.00
32293;DHT22;43233;48.608;8.838;2023-09-30T04:47:42;14.80;69.20
32293;DHT22;43233;48.608;8.838;2023-09-30T04:50:10;14.80;69.50
32293;DHT22;43233;48.608;8.838;2023-09-30T04:52:37;14.80;69.40
32293;DHT22;43233;48.608;8.838;2023-09-30T04:55:04;14.80;69.50
32293;DHT22;43233;48.608;8.838;2023-09-30T04:57:30;14.90;69.60
32293;DHT22;43233;48.608;8.838;2023-09-30T04:59:57;14.80;69.60
32293;DHT22;43233;48.608;8.838;2023-09-30T05:02:26;14.80;69.70
32293;DHT22;43233;48.608;8.838;2023-09-30T05:04:52;14.90;69.90
32293;DHT22;43233;48.608;8.838;2023-09-30T05:07:20;14.90;70.10
32293;DHT22;43233;48.608;8.838;2023-09-30T05:09:47;14.80;70.20
32293;DHT22;43233;48.608;8.838;2023-09-30T05:12:12;14.80;70.30
32293;DHT22;43233;48.608;8.838;2023-09-30T05:14:38;14.90;70.50
32293;DHT22;43233;48.608;8.838;2023-09-30T05:17:04;14.90;71.40
32293;DHT22;43233;48.608;8.838;2023-09-30T05:19:31;14.90;70.60
32293;DHT22;43233;48.608;8.838;2023-09-30T05:21:59;14.90;70.50
32293;DHT22;43233;48.608;8.838;2023-09-30T05:24:27;15.00;70.30
32293;DHT22;43233;48.608;8.838;2023-09-30T05:26:53;15.00;70.20
32293;DHT22;43233;48.608;8.838;2023-09-30T05:29:22;15.00;70.30
32293;DHT22;43233;48.608;8.838;2023-09-30T05:31:48;14.90;70.40
32293;DHT22;43233;48.608;8.838;2023-09-30T05:34:14;14.90;70.70
32293;DHT22;43233;48.608;8.838;2023-09-30T05:36:40;14.90;70.70
32293;DHT22;43233;48.608;8.838;2023-09-30T05:39:05;14.80;70.60
32293;DHT22;43233;48.608;8.838;2023-09-30T05:41:32;14.80;70.80
32293;DHT22;43233;48.608;8.838;2023-09-30T05:43:57;14.70;71.20
32293;DHT22;43233;48.608;8.838;2023-09-30T05:46:25;14.70;71.40
32293;DHT22;43233;48.608;8.838;2023-09-30T05:48:50;14.70;71.40
32293;DHT22;43233;48.608;8.838;2023-09-30T05:51:16;14.70;71.60
32293;DHT22;43233;48.608;8.838;2023-09-30T05:53:42;14.60;71.60
32293;DHT22;43233;48.608;8.838;2023-09-30T05:56:08;14.60;71.60
32293;DHT22;43233;48.608;8.838;2023-09-30T05:58:36;14.60;71.80
32293;DHT22;43233;48.608;8.838;2023-09-30T06:01:09;14.50;71.80
32293;DHT22;43233;48.608;8.838;2023-09-30T06:03:38;14.60;71.90
32293;DHT22;43233;48.608;8.838;2023-09-30T06:06:13;14.50;72.00
32293;DHT22;43233;48.608;8.838;2023-09-30T06:08:44;14.50;72.00
32293;DHT22;43233;48.608;8.838;2023-09-30T06:11:20;14.60;72.00
32293;DHT22;43233;48.608;8.838;2023-09-30T06:14:06;14.60;71.80
32293;DHT22;43233;48.608;8.838;2023-09-30T06:16:33;14.60;71.60
32293;DHT22;43233;48.608;8.838;2023-09-30T06:18:59;14.60;71.50
32293;DHT22;43233;48.608;8.838;2023-09-30T06:21:25;14.60;71.40
32293;DHT22;43233;48.608;8.838;2023-09-30T06:23:55;14.70;71.60
32293;DHT22;43233;48.608;8.838;2023-09-30T06:26:20;14.70;71.70
32293;DHT22;43233;48.608;8.838;2023-09-30T06:28:46;14.80;71.60
32293;DHT22;43233;48.608;8.838;2023-09-30T06:31:14;14.80;71.60
32293;DHT22;43233;48.608;8.838;2023-09-30T06:33:40;14.90;71.70
32293;DHT22;43233;48.608;8.838;2023-09-30T06:36:11;15.00;71.70
32293;DHT22;43233;48.608;8.838;2023-09-30T06:38:39;15.10;71.40
32293;DHT22;43233;48.608;8.838;2023-09-30T06:41:05;15.20;71.80
32293;DHT22;43233;48.608;8.838;2023-09-30T06:43:32;15.30;70.80
32293;DHT22;43233;48.608;8.838;2023-09-30T06:45:58;15.30;69.70
32293;DHT22;43233;48.608;8.838;2023-09-30T06:48:24;15.50;70.20
32293;DHT22;43233;48.608;8.838;2023-09-30T06:50:50;15.50;69.50
32293;DHT22;43233;48.608;8.838;2023-09-30T06:53:18;15.70;69.10
32293;DHT22;43233;48.608;8.838;2023-09-30T06:55:47;15.70;68.80
32293;DHT22;43233;48.608;8.838;2023-09-30T06:58:13;15.80;68.60
32293;DHT22;43233;48.608;8.838;2023-09-30T07:00:41;15.90;68.60
32293;DHT22;43233;48.608;8.838;2023-09-30T07:03:06;16.00;68.50
32293;DHT22;43233;48.608;8.838;2023-09-30T07:05:37;16.00;68.60
32293;DHT22;43233;48.608;8.838;2023-09-30T07:08:05;16.10;68.50
32293;DHT22;43233;48.608;8.838;2023-09-30T07:10:30;16.10;68.60
32293;DHT22;43233;48.608;8.838;2023-09-30T07:12:56;16.10;67.10
32293;DHT22;43233;48.608;8.838;2023-09-30T07:15:22;16.20;67.00
32293;DHT22;43233;48.608;8.838;2023-09-30T07:17:48;16.20;66.40
32293;DHT22;43233;48.608;8.838;2023-09-30T07:20:14;16.40;64.80
32293;DHT22;43233;48.608;8.838;2023-09-30T07:22:40;16.30;65.10
32293;DHT22;43233;48.608;8.838;2023-09-30T07:25:07;16.30;65.80
32293;DHT22;43233;48.608;8.838;2023-09-30T07:27:33;16.20;65.90
32293;DHT22;43233;48.608;8.838;2023-09-30T07:29:59;16.20;66.60
32293;DHT22;43233;48.608;8.838;2023-09-30T07:32:25;16.20;67.00
32293;DHT22;43233;48.608;8.838;2023-09-30T07:34:51;16.20;67.30
32293;DHT22;43233;48.608;8.838;2023-09-30T07:37:17;16.30;67.10
32293;DHT22;43233;48.608;8.838;2023-09-30T07:39:44;16.50;67.00
32293;DHT22;43233;48.608;8.838;2023-09-30T07:42:09;16.70;66.20
32293;DHT22;43233;48.608;8.838;2023-09-30T07:44:35;16.90;65.40
32293;DHT22;43233;48.608;8.838;2023-09-30T07:47:03;17.10;64.70
32293;DHT22;43233;48.608;8.838;2023-09-30T07:49:29;17.30;63.80
32293;DHT22;43233;48.608;8.838;2023-09-30T07:51:55;17.50;62.30
32293;DHT22;43233;48.608;8.838;2023-09-30T07:54:21;17.60;60.80
32293;DHT22;43233;48.608;8.838;2023-09-30T07:56:47;17.70;60.00
32293;DHT22;43233;48.608;8.838;2023-09-30T07:59:12;17.90;60.10
32293;DHT22;43233;48.608;8.838;2023-09-30T08:01:39;18.00;59.40
32293;DHT22;43233;48.608;8.838;2023-09-30T08:04:06;18.20;58.10
32293;DHT22;43233;48.608;8.838;2023-09-30T08:06:32;18.40;57.10
32293;DHT22;43233;48.608;8.838;2023-09-30T08:08:57;18.70;56.50
32293;DHT22;43233;48.608;8.838;2023-09-30T08:11:23;19.00;54.20
32293;DHT22;43233;48.608;8.838;2023-09-30T08:13:55;19.20;53.40
32293;DHT22;43233;48.608;8.838;2023-09-30T08:16:21;19.50;53.00
32293;DHT22;43233;48.608;8.838;2023-09-30T08:18:46;19.70;52.60
32293;DHT22;43233;48.608;8.838;2023-09-30T08:21:12;20.10;50.40
32293;DHT22;43233;48.608;8.838;2023-09-30T08:23:38;20.40;46.50
32293;DHT22;43233;48.608;8.838;2023-09-30T08:26:06;20.60;46.20
32293;DHT22;43233;48.608;8.838;2023-09-30T08:28:32;20.70;43.00
32293;DHT22;43233;48.608;8.838;2023-09-30T08:31:05;20.90;45.30
32293;DHT22;43233;48.608;8.838;2023-09-30T08:33:43;21.10;44.20
32293;DHT22;43233;48.608;8.838;2023-09-30T08:36:11;21.50;43.30
32293;DHT22;43233;48.608;8.838;2023-09-30T08:38:39;21.90;42.40
32293;DHT22;43233;48.608;8.838;2023-09-30T08:41:06;22.30;40.90
32293;DHT22;43233;48.608;8.838;2023-09-30T08:43:37;22.80;38.70
32293;DHT22;43233;48.608;8.838;2023-09-30T08:46:04;23.20;36.20
32293;DHT22;43233;48.608;8.838;2023-09-30T08:48:32;23.60;35.00
32293;DHT22;43233;48.608;8.838;2023-09-30T08:50:59;24.00;33.20
32293;DHT22;43233;48.608;8.838;2023-09-30T08:53:26;24.20;32.70
32293;DHT22;43233;48.608;8.838;2023-09-30T08:55:56;24.30;32.40
32293;DHT22;43233;48.608;8.838;2023-09-30T08:58:28;24.40;32.20
32293;DHT22;43233;48.608;8.838;2023-09-30T09:01:00;24.20;32.00
32293;DHT22;43233;48.608;8.838;2023-09-30T09:03:28;24.00;32.70
32293;DHT22;43233;48.608;8.838;2023-09-30T09:05:57;23.90;32.60
32293;DHT22;43233;48.608;8.838;2023-09-30T09:08:24;23.80;32.80
32293;DHT22;43233;48.608;8.838;2023-09-30T09:10:58;23.80;33.20
32293;DHT22;43233;48.608;8.838;2023-09-30T09:13:25;24.10;33.30
32293;DHT22;43233;48.608;8.838;2023-09-30T09:16:07;24.50;32.00
32293;DHT22;43233;48.608;8.838;2023-09-30T09:18:33;25.00;30.80
32293;DHT22;43233;48.608;8.838;2023-09-30T09:21:20;25.50;29.90
32293;DHT22;43233;48.608;8.838;2023-09-30T09:23:49;26.20;28.10
32293;DHT22;43233;48.608;8.838;2023-09-30T09:28:43;26.70;26.80
32293;DHT22;43233;48.608;8.838;2023-09-30T09:31:22;27.10;26.90
32293;DHT22;43233;48.608;8.838;2023-09-30T09:33:50;27.60;25.30
32293;DHT22;43233;48.608;8.838;2023-09-30T09:36:16;27.90;24.70
32293;DHT22;43233;48.608;8.838;2023-09-30T09:38:46;28.30;24.30
32293;DHT22;43233;48.608;8.838;2023-09-30T09:41:14;28.60;24.10
32293;DHT22;43233;48.608;8.838;2023-09-30T09:43:41;29.10;23.60
32293;DHT22;43233;48.608;8.838;2023-09-30T09:46:08;29.40;22.20
32293;DHT22;43233;48.608;8.838;2023-09-30T09:48:37;29.80;21.50
32293;DHT22;43233;48.608;8.838;2023-09-30T09:51:08;29.90;21.40
32293;DHT22;43233;48.608;8.838;2023-09-30T09:53:35;30.10;21.60
32293;DHT22;43233;48.608;8.838;2023-09-30T09:56:04;30.30;21.10
32293;DHT22;43233;48.608;8.838;2023-09-30T09:58:36;30.50;20.40
32293;DHT22;43233;48.608;8.838;2023-09-30T10:01:05;30.40;20.60
32293;DHT22;43233;48.608;8.838;2023-09-30T10:03:32;30.40;20.50
32293;DHT22;43233;48.608;8.838;2023-09-30T10:05:59;30.20;20.00
32293;DHT22;43233;48.608;8.838;2023-09-30T10:08:35;29.70;20.60
32293;DHT22;43233;48.608;8.838;2023-09-30T10:11:04;29.20;20.80
32293;DHT22;43233;48.608;8.838;2023-09-30T10:13:55;28.40;21.60
32293;DHT22;43233;48.608;8.838;2023-09-30T10:19:11;26.70;23.70
32293;DHT22;43233;48.608;8.838;2023-09-30T10:21:37;26.00;25.00
32293;DHT22;43233;48.608;8.838;2023-09-30T10:40:50;26.10;24.90
32293;DHT22;43233;48.608;8.838;2023-09-30T10:43:29;26.50;23.30
32293;DHT22;43233;48.608;8.838;2023-09-30T10:45:58;27.10;23.20
32293;DHT22;43233;48.608;8.838;2023-09-30T10:51:19;28.10;21.30
32293;DHT22;43233;48.608;8.838;2023-09-30T10:56:23;28.90;20.10
32293;DHT22;43233;48.608;8.838;2023-09-30T10:58:53;29.30;20.20
32293;DHT22;43233;48.608;8.838;2023-09-30T11:01:23;29.50;19.10
32293;DHT22;43233;48.608;8.838;2023-09-30T11:03:50;29.70;18.70
32293;DHT22;43233;48.608;8.838;2023-09-30T11:06:21;29.90;18.10
32293;DHT22;43233;48.608;8.838;2023-09-30T11:08:58;30.20;18.90
32293;DHT22;43233;48.608;8.838;2023-09-30T11:14:04;30.40;17.20
32293;DHT22;43233;48.608;8.838;2023-09-30T11:16:42;30.30;17.80
32293;DHT22;43233;48.608;8.838;2023-09-30T11:19:09;30.40;17.60
32293;DHT22;43233;48.608;8.838;2023-09-30T11:21:35;30.60;17.60
32293;DHT22;43233;48.608;8.838;2023-09-30T11:24:01;30.90;17.40
32293;DHT22;43233;48.608;8.838;2023-09-30T11:26:30;31.30;16.60
32293;DHT22;43233;48.608;8.838;2023-09-30T11:29:16;31.60;16.90
32293;DHT22;43233;48.608;8.838;2023-09-30T11:31:44;31.80;16.00
32293;DHT22;43233;48.608;8.838;2023-09-30T11:34:11;32.10;15.80
32293;DHT22;43233;48.608;8.838;2023-09-30T11:36:51;32.20;15.80
32293;DHT22;43233;48.608;8.838;2023-09-30T11:39:30;32.30;14.90
32293;DHT22;43233;48.608;8.838;2023-09-30T11:41:56;32.40;15.30
32293;DHT22;43233;48.608;8.838;2023-09-30T11:44:23;32.30;15.30
32293;DHT22;43233;48.608;8.838;2023-09-30T11:47:01;31.80;15.80
32293;DHT22;43233;48.608;8.838;2023-09-30T11:49:52;31.60;16.40
32293;DHT22;43233;48.608;8.838;2023-09-30T11:52:26;31.70;15.10
32293;DHT22;43233;48.608;8.838;2023-09-30T11:54:52;31.40;16.00
32293;DHT22;43233;48.608;8.838;2023-09-30T11:57:19;30.90;16.10
32293;DHT22;43233;48.608;8.838;2023-09-30T11:59:45;30.20;16.40
32293;DHT22;43233;48.608;8.838;2023-09-30T12:02:12;29.90;17.00
32293;DHT22;43233;48.608;8.838;2023-09-30T12:04:41;30.10;17.30
32293;DHT22;43233;48.608;8.838;2023-09-30T12:07:07;30.40;17.50
32293;DHT22;43233;48.608;8.838;2023-09-30T12:09:33;30.70;17.00
32293;DHT22;43233;48.608;8.838;2023-09-30T12:12:03;31.10;17.30
32293;DHT22;43233;48.608;8.838;2023-09-30T12:14:29;31.40;17.00
32293;DHT22;43233;48.608;8.838;2023-09-30T12:16:58;31.20;16.30
32293;DHT22;43233;48.608;8.838;2023-09-30T12:19:24;30.80;15.80
32293;DHT22;43233;48.608;8.838;2023-09-30T12:21:52;30.10;16.30
32293;DHT22;43233;48.608;8.838;2023-09-30T12:24:18;29.40;16.60
32293;DHT22;43233;48.608;8.838;2023-09-30T12:26:50;28.50;17.40
32293;DHT22;43233;48.608;8.838;2023-09-30T12:29:21;28.00;18.40
32293;DHT22;43233;48.608;8.838;2023-09-30T12:31:51;27.60;19.00
32293;DHT22;43233;48.608;8.838;2023-09-30T12:34:18;27.30;19.40
32293;DHT22;43233;48.608;8.838;2023-09-30T12:36:43;27.00;20.00
32293;DHT22;43233;48.608;8.838;2023-09-30T12:39:10;26.80;19.70
32293;DHT22;43233;48.608;8.838;2023-09-30T12:41:43;26.90;20.10
32293;DHT22;43233;48.608;8.838;2023-09-30T12:44:10;27.20;19.90
32293;DHT22;43233;48.608;8.838;2023-09-30T12:46:36;27.80;18.80
32293;DHT22;43233;48.608;8.838;2023-09-30T12:49:05;28.10;17.40
32293;DHT22;43233;48.608;8.838;2023-09-30T12:51:31;28.00;18.00
32293;DHT22;43233;48.608;8.838;2023-09-30T12:53:57;27.90;18.40
32293;DHT22;43233;48.608;8.838;2023-09-30T12:56:23;27.70;19.00
32293;DHT22;43233;48.608;8.838;2023-09-30T12:58:49;27.50;19.20
32293;DHT22;43233;48.608;8.838;2023-09-30T13:01:15;27.60;19.00
32293;DHT22;43233;48.608;8.838;2023-09-30T13:03:46;27.50;19.90
32293;DHT22;43233;48.608;8.838;2023-09-30T13:06:12;27.60;20.20
32293;DHT22;43233;48.608;8.838;2023-09-30T13:08:37;27.70;20.10
32293;DHT22;43233;48.608;8.838;2023-09-30T13:11:04;27.80;20.00
32293;DHT22;43233;48.608;8.838;2023-09-30T13:13:31;27.70;20.00
32293;DHT22;43233;48.608;8.838;2023-09-30T13:15:59;27.50;20.40
32293;DHT22;43233;48.608;8.838;2023-09-30T13:18:24;27.40;20.70
32293;DHT22;43233;48.608;8.838;2023-09-30T13:20:50;27.20;21.10
32293;DHT22;43233;48.608;8.838;2023-09-30T13:23:18;27.00;21.60
32293;DHT22;43233;48.608;8.838;2023-09-30T13:25:44;26.90;21.60
32293;DHT22;43233;48.608;8.838;2023-09-30T13:28:09;26.70;21.90
32293;DHT22;43233;48.608;8.838;2023-09-30T13:30:35;26.60;22.20
32293;DHT22;43233;48.608;8.838;2023-09-30T13:33:01;26.50;22.30
32293;DHT22;43233;48.608;8.838;2023-09-30T13:35:27;26.50;22.60
32293;DHT22;43233;48.608;8.838;2023-09-30T13:37:53;26.60;22.60
32293;DHT22;43233;48.608;8.838;2023-09-30T13:40:18;26.70;22.30
32293;DHT22;43233;48.608;8.838;2023-09-30T13:42:45;26.90;22.00
32293;DHT22;43233;48.608;8.838;2023-09-30T13:45:11;27.00;22.60
32293;DHT22;43233;48.608;8.838;2023-09-30T13:47:36;27.00;22.20
32293;DHT22;43233;48.608;8.838;2023-09-30T13:50:03;27.10;21.90
32293;DHT22;43233;48.608;8.838;2023-09-30T13:52:34;27.00;21.70
32293;DHT22;43233;48.608;8.838;2023-09-30T13:55:00;27.00;21.60
32293;DHT22;43233;48.608;8.838;2023-09-30T13:57:26;26.90;21.30
32293;DHT22;43233;48.608;8.838;2023-09-30T13:59:51;26.90;21.20
32293;DHT22;43233;48.608;8.838;2023-09-30T14:02:17;26.80;21.60
32293;DHT22;43233;48.608;8.838;2023-09-30T14:04:43;26.70;21.40
32293;DHT22;43233;48.608;8.838;2023-09-30T14:07:09;26.60;21.80
32293;DHT22;43233;48.608;8.838;2023-09-30T14:09:35;26.40;21.80
32293;DHT22;43233;48.608;8.838;2023-09-30T14:12:01;26.20;21.40
32293;DHT22;43233;48.608;8.838;2023-09-30T14:14:26;26.10;22.30
32293;DHT22;43233;48.608;8.838;2023-09-30T14:16:52;25.90;22.20
32293;DHT22;43233;48.608;8.838;2023-09-30T14:19:18;25.60;23.40
32293;DHT22;43233;48.608;8.838;2023-09-30T14:21:44;25.50;24.20
32293;DHT22;43233;48.608;8.838;2023-09-30T14:24:11;25.30;24.60
32293;DHT22;43233;48.608;8.838;2023-09-30T14:26:37;25.20;24.90
32293;DHT22;43233;48.608;8.838;2023-09-30T14:29:03;25.10;25.40
32293;DHT22;43233;48.608;8.838;2023-09-30T14:31:41;25.00;25.90
32293;DHT22;43233;48.608;8.838;2023-09-30T14:34:07;24.90;25.90
32293;DHT22;43233;48.608;8.838;2023-09-30T14:36:32;24.90;26.20
32293;DHT22;43233;48.608;8.838;2023-09-30T14:38:58;24.80;26.20
32293;DHT22;43233;48.608;8.838;2023-09-30T14:41:24;24.70;26.40
32293;DHT22;43233;48.608;8.838;2023-09-30T14:43:50;24.70;26.40
32293;DHT22;43233;48.608;8.838;2023-09-30T14:46:16;24.70;26.40
32293;DHT22;43233;48.608;8.838;2023-09-30T14:48:42;24.60;26.00
32293;DHT22;43233;48.608;8.838;2023-09-30T14:51:09;24.60;26.00
32293;DHT22;43233;48.608;8.838;2023-09-30T14:53:35;24.60;26.10
32293;DHT22;43233;48.608;8.838;2023-09-30T14:56:00;24.70;26.10
32293;DHT22;43233;48.608;8.838;2023-09-30T14:58:26;24.80;26.10
32293;DHT22;43233;48.608;8.838;2023-09-30T15:00:52;24.80;26.20
32293;DHT22;43233;48.608;8.838;2023-09-30T15:03:19;24.80;26.30
32293;DHT22;43233;48.608;8.838;2023-09-30T15:05:47;24.80;26.20
32293;DHT22;43233;48.608;8.838;2023-09-30T15:08:13;24.80;26.30
32293;DHT22;43233;48.608;8.838;2023-09-30T15:10:38;24.80;26.30
32293;DHT22;43233;48.608;8.838;2023-09-30T15:13:04;24.80;26.40
32293;DHT22;43233;48.608;8.838;2023-09-30T15:15:30;24.70;26.20
32293;DHT22;43233;48.608;8.838;2023-09-30T15:17:56;24.70;25.80
32293;DHT22;43233;48.608;8.838;2023-09-30T15:20:22;24.70;26.10
32293;DHT22;43233;48.608;8.838;2023-09-30T15:22:50;24.60;26.10
32293;DHT22;43233;48.608;8.838;2023-09-30T15:25:16;24.50;26.30
32293;DHT22;43233;48.608;8.838;2023-09-30T15:27:43;24.50;26.90
32293;DHT22;43233;48.608;8.838;2023-09-30T15:30:09;24.40;27.00
32293;DHT22;43233;48.608;8.838;2023-09-30T15:32:35;24.30;26.80
32293;DHT22;43233;48.608;8.838;2023-09-30T15:35:07;24.20;27.00
32293;DHT22;43233;48.608;8.838;2023-09-30T15:37:34;24.00;27.40
32293;DHT22;43233;48.608;8.838;2023-09-30T15:40:00;24.00;27.70
32293;DHT22;43233;48.608;8.838;2023-09-30T15:42:26;23.80;28.00
32293;DHT22;43233;48.608;8.838;2023-09-30T15:44:52;23.70;28.30
32293;DHT22;43233;48.608;8.838;2023-09-30T15:47:21;23.60;28.50
32293;DHT22;43233;48.608;8.838;2023-09-30T15:49:47;23.40;29.30
32293;DHT22;43233;48.608;8.838;2023-09-30T15:52:13;23.30;29.20
32293;DHT22;43233;48.608;8.838;2023-09-30T15:54:39;23.20;29.30
32293;DHT22;43233;48.608;8.838;2023-09-30T15:57:10;23.10;29.40
32293;DHT22;43233;48.608;8.838;2023-09-30T15:59:39;22.90;29.50
32293;DHT22;43233;48.608;8.838;2023-09-30T16:02:12;22.90;29.80